Darstellungsparameter: Aktuell verwendete Einstellungen:
Skalierung der Graphiken ... ?
xyx+y,   Skalierungsfaktor:      Skalierung: Modus: x, Faktor: 1
Darstellungszeitraum ... ?
Vom - - bis: - -   Zeitraum: 20.04.2020 - 24.04.2020
Min/Max/Avg-Anzeige ... ?
Zeige MMA aktuell
Zeige MMA Monat
Zeige MMA alles
Zeige --A aktuell
Zeige --A Monat
Zeige --A alles
Keine MMA-Anzeige
MMA:
Keine MMA-Graphiken
MMA-Basis: 20.04.2020 - 24.04.2020
Quicknavigation für Darstellung... ?
Tage:      1T, 2T, 3T, 5T -1T -2T -3T -5T +1T +2T +3T +5T
Wochen: 1W, 2W, 3W -1W -2W -3W +1W +2W +3W
Monate: 1M, 3M, 6M -1M -3M -6M +1M +3M +6M
Jahre:    1J, 3J, 5J, 10J -1J -3J -5J -10J +1J +3J +5J +10J
Nutze für die Darstellung ... ?
Originaldaten oder Mittelwerte auf ...
Stundenbasis Tagesbasis Wochenbasis
Monatsbasis Jahresbasis      Datenbasis: Original-Daten
Darstellen als:
Statistik (Auto) Statistik J:M      Darstellung:
Zur Graphik,    zurück zur Übersicht aller Sensoren.
 
Tabellarische Datenbersicht: ?
 
Sensor: Nr:Datum:Temp:Feuchte:
Aussen-T/F 1 20-04-2020 00:02:17 10.1 C 25 %
2 20-04-2020 00:12:17 9.6 C 25 %
3 20-04-2020 00:22:17 10.1 C 21 %
4 20-04-2020 00:32:18 9.9 C 23 %
5 20-04-2020 00:42:18 9.6 C 25 %
6 20-04-2020 00:52:18 9.3 C 25 %
7 20-04-2020 01:02:17 9.8 C 23 %
8 20-04-2020 01:12:17 9.3 C 23 %
9 20-04-2020 01:22:17 9.1 C 21 %
10 20-04-2020 01:32:17 9.6 C 21 %
11 20-04-2020 01:42:17 9.1 C 21 %
12 20-04-2020 01:52:17 8.5 C 25 %
13 20-04-2020 02:02:18 8.1 C 26 %
14 20-04-2020 02:12:18 7.9 C 26 %
15 20-04-2020 02:22:17 7.5 C 27 %
16 20-04-2020 02:32:18 7.3 C 27 %
17 20-04-2020 02:42:18 7.3 C 27 %
18 20-04-2020 02:52:17 7.3 C 27 %
19 20-04-2020 03:02:17 7 C 27 %
20 20-04-2020 03:12:17 6.9 C 28 %
21 20-04-2020 03:22:17 6.7 C 29 %
22 20-04-2020 03:32:17 6.9 C 28 %
23 20-04-2020 03:42:17 6.9 C 28 %
24 20-04-2020 03:52:17 6.7 C 29 %
25 20-04-2020 04:02:17 6.6 C 28 %
Sensor: Nr:Datum:Temp:Feuchte:
Aussen-T/F 26 20-04-2020 04:12:17 6.5 C 28 %
27 20-04-2020 04:22:17 6.4 C 29 %
28 20-04-2020 04:32:18 6.4 C 28 %
29 20-04-2020 04:42:18 6.4 C 28 %
30 20-04-2020 04:52:17 6.2 C 29 %
31 20-04-2020 05:02:18 6.4 C 29 %
32 20-04-2020 05:12:18 6.3 C 29 %
33 20-04-2020 05:22:17 6.3 C 29 %
34 20-04-2020 05:32:17 6.2 C 30 %
35 20-04-2020 05:42:18 6.3 C 29 %
36 20-04-2020 05:52:17 6.3 C 29 %
37 20-04-2020 06:02:18 6 C 30 %
38 20-04-2020 06:12:18 5.9 C 30 %
39 20-04-2020 06:22:17 5.9 C 30 %
40 20-04-2020 06:32:17 6.1 C 30 %
41 20-04-2020 06:42:17 6.1 C 30 %
42 20-04-2020 06:52:17 5.9 C 30 %
43 20-04-2020 07:02:17 6.1 C 30 %
44 20-04-2020 07:12:17 6.2 C 30 %
45 20-04-2020 07:22:17 6.2 C 30 %
46 20-04-2020 07:32:17 6.4 C 30 %
47 20-04-2020 07:42:17 7.2 C 27 %
48 20-04-2020 07:52:17 7.4 C 27 %
49 20-04-2020 08:02:18 7.3 C 27 %
50 20-04-2020 08:12:18 7.9 C 26 %
Sensor: Nr:Datum:Temp:Feuchte:
Aussen-T/F 51 20-04-2020 08:22:17 7.8 C 27 %
52 20-04-2020 08:32:17 7.7 C 28 %
53 20-04-2020 08:42:18 7.9 C 26 %
54 20-04-2020 08:52:18 8.1 C 26 %
55 20-04-2020 09:02:17 8.3 C 26 %
56 20-04-2020 09:12:17 8.2 C 27 %
57 20-04-2020 09:22:17 8.4 C 27 %
58 20-04-2020 09:32:17 9 C 25 %
59 20-04-2020 09:42:17 9.4 C 25 %
60 20-04-2020 09:52:18 9.4 C 26 %
61 20-04-2020 10:02:18 9.9 C 26 %
62 20-04-2020 10:12:18 10.7 C 22 %
63 20-04-2020 10:22:17 11.4 C 20 %
64 20-04-2020 10:32:17 12.1 C 20 %
65 20-04-2020 10:42:18 12.7 C 20 %
66 20-04-2020 10:52:17 13.1 C 20 %
67 20-04-2020 11:02:18 13.7 C 20 %
68 20-04-2020 11:12:18 14 C 20 %
69 20-04-2020 11:22:17 14.4 C 20 %
70 20-04-2020 11:32:17 14.7 C 20 %
71 20-04-2020 11:42:18 14.8 C 20 %
72 20-04-2020 11:52:17 15 C 20 %
73 20-04-2020 12:02:17 15.2 C 20 %
74 20-04-2020 12:12:17 15 C 20 %
75 20-04-2020 12:22:17 15 C 20 %
Sensor: Nr:Datum:Temp:Feuchte:
Aussen-T/F 76 20-04-2020 12:32:17 15.1 C 20 %
77 20-04-2020 12:42:17 15.1 C 20 %
78 20-04-2020 12:52:17 15.4 C 20 %
79 20-04-2020 13:02:17 15.4 C 20 %
80 20-04-2020 13:12:17 16 C 20 %
81 20-04-2020 13:22:17 15.8 C 20 %
82 20-04-2020 13:32:17 16.1 C 20 %
83 20-04-2020 13:42:17 16.1 C 20 %
84 20-04-2020 13:52:17 16.8 C 20 %
85 20-04-2020 14:02:17 16.9 C 20 %
86 20-04-2020 14:12:17 17.3 C 20 %
87 20-04-2020 14:22:17 18.3 C 20 %
88 20-04-2020 14:32:18 21 C 20 %
89 20-04-2020 14:42:18 23 C 20 %
90 20-04-2020 14:52:18 23.2 C 20 %
91 20-04-2020 15:02:17 22.9 C 20 %
92 20-04-2020 15:12:17 21.8 C 20 %
93 20-04-2020 15:22:17 22.9 C 20 %
94 20-04-2020 15:32:17 23.3 C 20 %
95 20-04-2020 15:42:17 24.7 C 20 %
96 20-04-2020 15:52:17 22.5 C 20 %
97 20-04-2020 16:02:17 24.5 C 20 %
98 20-04-2020 16:12:17 22.7 C 20 %
99 20-04-2020 16:22:17 23 C 20 %
100 20-04-2020 16:32:17 23.5 C 20 %
Sensor: Nr:Datum:Temp:Feuchte:
Aussen-T/F 101 20-04-2020 16:42:17 23.6 C 20 %
102 20-04-2020 16:52:17 23.4 C 20 %
103 20-04-2020 17:02:17 23.7 C 20 %
104 20-04-2020 17:12:17 22.3 C 20 %
105 20-04-2020 17:22:17 21.6 C 20 %
106 20-04-2020 17:32:17 20.4 C 20 %
107 20-04-2020 17:42:17 22.4 C 20 %
108 20-04-2020 17:52:17 20.9 C 20 %
109 20-04-2020 18:02:18 19.1 C 20 %
110 20-04-2020 18:12:18 19 C 20 %
111 20-04-2020 18:22:18 18.5 C 20 %
112 20-04-2020 18:32:17 18.4 C 20 %
113 20-04-2020 18:42:18 18.2 C 20 %
114 20-04-2020 18:52:18 18.3 C 20 %
115 20-04-2020 19:02:17 17.8 C 20 %
116 20-04-2020 19:12:17 17.6 C 20 %
117 20-04-2020 19:22:17 17.2 C 20 %
118 20-04-2020 19:32:17 17 C 20 %
119 20-04-2020 19:42:17 16.6 C 20 %
120 20-04-2020 19:52:17 16.3 C 20 %
121 20-04-2020 20:02:17 16 C 20 %
122 20-04-2020 20:12:17 15.6 C 20 %
123 20-04-2020 20:22:17 15 C 20 %
124 20-04-2020 20:32:17 14.4 C 20 %
125 20-04-2020 20:42:17 14.5 C 20 %
Sensor: Nr:Datum:Temp:Feuchte:
Aussen-T/F 126 20-04-2020 20:52:17 13.8 C 20 %
127 20-04-2020 21:02:17 13.7 C 20 %
128 20-04-2020 21:12:17 12.9 C 20 %
129 20-04-2020 21:22:17 12.6 C 20 %
130 20-04-2020 21:32:17 12 C 20 %
131 20-04-2020 21:42:17 12.2 C 20 %
132 20-04-2020 21:52:17 12.6 C 20 %
133 20-04-2020 22:02:17 11.8 C 20 %
134 20-04-2020 22:12:17 11.9 C 20 %
135 20-04-2020 22:22:17 12.1 C 20 %
136 20-04-2020 22:32:17 12.2 C 20 %
137 20-04-2020 22:42:17 11.9 C 20 %
138 20-04-2020 22:52:18 11.5 C 20 %
139 20-04-2020 23:02:17 11.5 C 20 %
140 20-04-2020 23:12:17 11.6 C 20 %
141 20-04-2020 23:22:17 11 C 20 %
142 20-04-2020 23:32:18 11.6 C 20 %
143 20-04-2020 23:42:18 11 C 20 %
144 20-04-2020 23:52:17 11 C 20 %
145 21-04-2020 00:02:17 10.9 C 20 %
146 21-04-2020 00:12:17 10.3 C 20 %
147 21-04-2020 00:22:17 10.4 C 20 %
148 21-04-2020 00:32:17 9.9 C 20 %
149 21-04-2020 00:42:17 10.5 C 20 %
150 21-04-2020 00:52:17 10 C 20 %
Sensor: Nr:Datum:Temp:Feuchte:
Aussen-T/F 151 21-04-2020 01:02:18 9.4 C 20 %
152 21-04-2020 01:12:18 8.9 C 20 %
153 21-04-2020 01:22:18 9 C 20 %
154 21-04-2020 01:32:18 8.9 C 20 %
155 21-04-2020 01:42:18 9.2 C 20 %
156 21-04-2020 01:52:17 8.4 C 20 %
157 21-04-2020 02:02:17 9.2 C 20 %
158 21-04-2020 02:12:18 9.1 C 20 %
159 21-04-2020 02:22:17 9.1 C 20 %
160 21-04-2020 02:32:18 8.9 C 20 %
161 21-04-2020 02:42:18 9.2 C 20 %
162 21-04-2020 02:52:17 9 C 20 %
163 21-04-2020 03:02:17 9.3 C 20 %
164 21-04-2020 03:12:17 9.1 C 20 %
165 21-04-2020 03:22:18 9.2 C 20 %
166 21-04-2020 03:32:17 9.1 C 20 %
167 21-04-2020 03:42:17 8.3 C 20 %
168 21-04-2020 03:52:18 8.6 C 20 %
169 21-04-2020 04:02:18 8.1 C 20 %
170 21-04-2020 04:12:18 7.4 C 23 %
171 21-04-2020 04:22:17 7.8 C 20 %
172 21-04-2020 04:32:17 7.7 C 23 %
173 21-04-2020 04:42:17 7.5 C 25 %
174 21-04-2020 04:52:17 7.5 C 25 %
175 21-04-2020 05:02:17 7.1 C 25 %
Sensor: Nr:Datum:Temp:Feuchte:
Aussen-T/F 176 21-04-2020 05:12:17 7.7 C 25 %
177 21-04-2020 05:22:17 7.3 C 25 %
178 21-04-2020 05:32:18 7 C 25 %
179 21-04-2020 05:42:18 6.8 C 26 %
180 21-04-2020 05:52:17 6.5 C 27 %
181 21-04-2020 06:02:17 6.9 C 27 %
182 21-04-2020 06:12:17 6.6 C 27 %
183 21-04-2020 06:22:18 6.6 C 27 %
184 21-04-2020 06:32:18 6.3 C 28 %
185 21-04-2020 06:42:18 6.4 C 28 %
186 21-04-2020 06:52:17 6.3 C 29 %
187 21-04-2020 07:02:18 6.1 C 30 %
188 21-04-2020 07:12:18 6.2 C 29 %
189 21-04-2020 07:22:17 6.3 C 30 %
190 21-04-2020 07:32:17 6.5 C 30 %
191 21-04-2020 07:42:17 7.3 C 27 %
192 21-04-2020 07:52:17 6.9 C 29 %
193 21-04-2020 08:02:17 7.4 C 27 %
194 21-04-2020 08:12:17 7.7 C 26 %
195 21-04-2020 08:22:17 7.6 C 26 %
196 21-04-2020 08:32:17 7.2 C 28 %
197 21-04-2020 08:42:18 7.5 C 27 %
198 21-04-2020 08:52:17 8.3 C 27 %
199 21-04-2020 09:02:17 8.7 C 25 %
200 21-04-2020 09:12:17 9.2 C 23 %
Sensor: Nr:Datum:Temp:Feuchte:
Aussen-T/F 201 21-04-2020 09:22:17 9.7 C 21 %
202 21-04-2020 09:32:17 10.2 C 20 %
203 21-04-2020 09:42:17 10.7 C 20 %
204 21-04-2020 09:52:17 10.9 C 20 %
205 21-04-2020 10:02:17 10.9 C 20 %
206 21-04-2020 10:12:17 11.7 C 20 %
207 21-04-2020 10:22:17 12.2 C 20 %
208 21-04-2020 10:32:17 12.8 C 20 %
209 21-04-2020 10:42:17 13.2 C 20 %
210 21-04-2020 10:52:17 13.5 C 20 %
211 21-04-2020 11:02:17 13.9 C 20 %
212 21-04-2020 11:12:17 14.6 C 20 %
213 21-04-2020 11:22:17 14.6 C 20 %
214 21-04-2020 11:32:18 14.7 C 20 %
215 21-04-2020 11:42:18 15.2 C 20 %
216 21-04-2020 11:52:18 15.7 C 20 %
217 21-04-2020 12:02:17 16.4 C 20 %
218 21-04-2020 12:12:18 16.1 C 20 %
219 21-04-2020 12:22:17 16.1 C 20 %
220 21-04-2020 12:32:17 16.2 C 20 %
221 21-04-2020 12:42:17 16.4 C 20 %
222 21-04-2020 12:52:17 16.6 C 20 %
223 21-04-2020 13:02:17 16.9 C 20 %
224 21-04-2020 13:12:17 17.4 C 20 %
225 21-04-2020 13:22:17 17.2 C 20 %
Sensor: Nr:Datum:Temp:Feuchte:
Aussen-T/F 226 21-04-2020 13:32:17 17.3 C 20 %
227 21-04-2020 13:42:17 17.9 C 20 %
228 21-04-2020 13:52:17 18.1 C 20 %
229 21-04-2020 14:02:17 18.5 C 20 %
230 21-04-2020 14:12:17 19 C 20 %
231 21-04-2020 14:22:17 19.4 C 20 %
232 21-04-2020 14:32:17 22 C 20 %
233 21-04-2020 14:42:17 24.4 C 20 %
234 21-04-2020 14:52:17 24.2 C 20 %
235 21-04-2020 15:02:17 24.5 C 20 %
236 21-04-2020 15:12:17 22.2 C 20 %
237 21-04-2020 15:22:17 23.7 C 20 %
238 21-04-2020 15:32:18 23.2 C 20 %
239 21-04-2020 15:42:18 24 C 20 %
240 21-04-2020 15:52:17 23.4 C 20 %
241 21-04-2020 16:02:18 22.8 C 20 %
242 21-04-2020 16:12:18 23.2 C 20 %
243 21-04-2020 16:22:17 22.9 C 20 %
244 21-04-2020 16:32:17 23.2 C 20 %
245 21-04-2020 16:42:17 24.3 C 20 %
246 21-04-2020 16:52:17 22.8 C 20 %
247 21-04-2020 17:02:17 23.6 C 20 %
248 21-04-2020 17:12:17 24.8 C 20 %
249 21-04-2020 17:22:18 22.8 C 20 %
250 21-04-2020 17:32:17 21.9 C 20 %
Sensor: Nr:Datum:Temp:Feuchte:
Aussen-T/F 251 21-04-2020 17:42:17 22.3 C 20 %
252 21-04-2020 17:52:17 22.9 C 20 %
253 21-04-2020 18:02:18 21.1 C 20 %
254 21-04-2020 18:12:18 20.9 C 20 %
255 21-04-2020 18:22:17 20.5 C 20 %
256 21-04-2020 18:32:17 20.3 C 20 %
257 21-04-2020 18:42:17 20 C 20 %
258 21-04-2020 18:52:18 20 C 20 %
259 21-04-2020 19:02:17 19.6 C 20 %
260 21-04-2020 19:12:17 19.4 C 20 %
261 21-04-2020 19:22:17 19.1 C 20 %
262 21-04-2020 19:32:18 18.9 C 20 %
263 21-04-2020 19:42:18 18.7 C 20 %
264 21-04-2020 19:52:17 18.3 C 20 %
265 21-04-2020 20:02:17 17.9 C 20 %
266 21-04-2020 20:12:17 17.4 C 20 %
267 21-04-2020 20:22:17 16.7 C 20 %
268 21-04-2020 20:32:17 16.2 C 20 %
269 21-04-2020 20:42:17 15.5 C 20 %
270 21-04-2020 20:52:17 14.8 C 20 %
271 21-04-2020 21:02:18 14.2 C 20 %
272 21-04-2020 21:12:18 14.5 C 20 %
273 21-04-2020 21:22:17 14.1 C 20 %
274 21-04-2020 21:32:17 13.9 C 20 %
275 21-04-2020 21:42:17 13.2 C 20 %
Sensor: Nr:Datum:Temp:Feuchte:
Aussen-T/F 276 21-04-2020 21:52:18 12.9 C 20 %
277 21-04-2020 22:02:17 13.2 C 20 %
278 21-04-2020 22:12:17 13 C 20 %
279 21-04-2020 22:22:17 13.4 C 20 %
280 21-04-2020 22:32:17 12.6 C 20 %
281 21-04-2020 22:42:17 12 C 20 %
282 21-04-2020 22:52:18 11.8 C 20 %
283 21-04-2020 23:02:18 12.1 C 20 %
284 21-04-2020 23:12:18 11.8 C 20 %
285 21-04-2020 23:22:17 11.5 C 20 %
286 21-04-2020 23:32:18 11.3 C 20 %
287 21-04-2020 23:42:18 11.3 C 20 %
288 21-04-2020 23:52:18 11.1 C 20 %
289 22-04-2020 00:02:18 11.1 C 20 %
290 22-04-2020 00:12:18 10.6 C 20 %
291 22-04-2020 00:22:17 11.1 C 20 %
292 22-04-2020 00:32:18 11.4 C 20 %
293 22-04-2020 00:42:18 10.9 C 20 %
294 22-04-2020 00:52:17 11 C 20 %
295 22-04-2020 01:02:17 10.8 C 20 %
296 22-04-2020 01:12:17 10 C 21 %
297 22-04-2020 01:22:17 9.9 C 25 %
298 22-04-2020 01:32:18 9.7 C 25 %
299 22-04-2020 01:42:18 10.2 C 21 %
300 22-04-2020 01:52:17 9.9 C 23 %
Sensor: Nr:Datum:Temp:Feuchte:
Aussen-T/F 301 22-04-2020 02:02:17 9.9 C 23 %
302 22-04-2020 02:12:17 9.8 C 25 %
303 22-04-2020 02:22:17 9.5 C 25 %
304 22-04-2020 02:32:17 9.3 C 25 %
305 22-04-2020 02:42:17 9.7 C 25 %
306 22-04-2020 02:52:17 9.3 C 25 %
307 22-04-2020 03:02:17 9.5 C 25 %
308 22-04-2020 03:12:17 9 C 25 %
309 22-04-2020 03:22:18 8.8 C 26 %
310 22-04-2020 03:32:18 8.5 C 27 %
311 22-04-2020 03:42:18 8.4 C 27 %
312 22-04-2020 03:52:17 8.3 C 27 %
313 22-04-2020 04:02:18 8.4 C 27 %
314 22-04-2020 04:12:18 8.3 C 27 %
315 22-04-2020 04:22:17 8 C 27 %
316 22-04-2020 04:32:18 7.9 C 27 %
317 22-04-2020 04:42:18 7.9 C 27 %
318 22-04-2020 04:52:17 7.4 C 28 %
319 22-04-2020 05:02:18 7.5 C 28 %
320 22-04-2020 05:12:18 7.3 C 28 %
321 22-04-2020 05:22:17 7.1 C 29 %
322 22-04-2020 05:32:17 7.1 C 29 %
323 22-04-2020 05:42:18 6.9 C 30 %
324 22-04-2020 05:52:17 6.7 C 30 %
325 22-04-2020 06:02:18 6.7 C 30 %
Sensor: Nr:Datum:Temp:Feuchte:
Aussen-T/F 326 22-04-2020 06:12:18 6.1 C 31 %
327 22-04-2020 06:22:17 5.8 C 32 %
328 22-04-2020 06:32:17 5.6 C 33 %
329 22-04-2020 06:42:17 5.3 C 35 %
330 22-04-2020 06:52:17 5.6 C 35 %
331 22-04-2020 07:02:17 5.6 C 35 %
332 22-04-2020 07:12:17 5.4 C 35 %
333 22-04-2020 07:22:18 5.9 C 35 %
334 22-04-2020 07:32:17 5.5 C 35 %
335 22-04-2020 07:42:17 5.7 C 35 %
336 22-04-2020 07:52:17 5.9 C 35 %
337 22-04-2020 08:02:17 6.5 C 34 %
338 22-04-2020 08:12:17 6.6 C 34 %
339 22-04-2020 08:22:17 7 C 33 %
340 22-04-2020 08:32:17 7.5 C 32 %
341 22-04-2020 08:42:17 8 C 31 %
342 22-04-2020 08:52:18 8.9 C 30 %
343 22-04-2020 09:02:18 9.1 C 30 %
344 22-04-2020 09:12:18 9.1 C 30 %
345 22-04-2020 09:22:17 10.1 C 26 %
346 22-04-2020 09:32:17 10.7 C 26 %
347 22-04-2020 09:42:17 10.7 C 26 %
348 22-04-2020 09:52:17 11.3 C 24 %
349 22-04-2020 10:02:17 11.5 C 24 %
350 22-04-2020 10:12:17 12.5 C 20 %
Sensor: Nr:Datum:Temp:Feuchte:
Aussen-T/F 351 22-04-2020 10:22:17 13 C 20 %
352 22-04-2020 10:32:17 13.7 C 20 %
353 22-04-2020 10:42:17 14.2 C 20 %
354 22-04-2020 10:52:17 14.8 C 20 %
355 22-04-2020 11:02:17 15.4 C 20 %
356 22-04-2020 11:12:17 15.7 C 20 %
357 22-04-2020 11:22:17 16.2 C 20 %
358 22-04-2020 11:32:17 16.4 C 20 %
359 22-04-2020 11:42:17 17.1 C 20 %
360 22-04-2020 11:52:18 17.1 C 20 %
361 22-04-2020 12:02:18 17.9 C 20 %
362 22-04-2020 12:12:18 17.6 C 20 %
363 22-04-2020 12:22:17 17.7 C 20 %
364 22-04-2020 12:32:17 17.7 C 20 %
365 22-04-2020 12:42:17 17.7 C 20 %
366 22-04-2020 12:52:18 18 C 20 %
367 22-04-2020 13:02:17 18.6 C 20 %
368 22-04-2020 13:12:17 19.3 C 20 %
369 22-04-2020 13:22:17 19 C 20 %
370 22-04-2020 13:32:17 18.9 C 20 %
371 22-04-2020 13:42:17 19.1 C 20 %
372 22-04-2020 13:52:17 19.4 C 20 %
373 22-04-2020 14:02:17 19.8 C 20 %
374 22-04-2020 14:12:17 20.3 C 20 %
375 22-04-2020 14:22:17 21.2 C 20 %
Sensor: Nr:Datum:Temp:Feuchte:
Aussen-T/F 376 22-04-2020 14:32:17 25.4 C 20 %
377 22-04-2020 14:42:17 27.1 C 20 %
378 22-04-2020 14:52:17 25.8 C 20 %
379 22-04-2020 15:02:17 24.9 C 20 %
380 22-04-2020 15:12:18 26.4 C 20 %
381 22-04-2020 15:22:17 27.6 C 20 %
382 22-04-2020 15:32:17 27 C 20 %
383 22-04-2020 15:42:17 25.4 C 20 %
384 22-04-2020 15:52:17 25.7 C 20 %
385 22-04-2020 16:02:17 25.3 C 20 %
386 22-04-2020 16:12:17 27.2 C 20 %
387 22-04-2020 16:22:17 26.8 C 20 %
388 22-04-2020 16:32:18 27.7 C 20 %
389 22-04-2020 16:42:18 25.2 C 20 %
390 22-04-2020 16:52:17 26.3 C 20 %
391 22-04-2020 17:02:17 25.2 C 20 %
392 22-04-2020 17:12:17 24.6 C 20 %
393 22-04-2020 17:22:17 25.1 C 20 %
394 22-04-2020 17:32:17 25.5 C 20 %
395 22-04-2020 17:42:17 25.6 C 20 %
396 22-04-2020 17:52:17 25.2 C 20 %
397 22-04-2020 18:02:17 23.1 C 20 %
398 22-04-2020 18:12:17 22 C 20 %
399 22-04-2020 18:22:17 22.1 C 20 %
400 22-04-2020 18:32:17 21.9 C 20 %
Sensor: Nr:Datum:Temp:Feuchte:
Aussen-T/F 401 22-04-2020 18:42:17 21.9 C 20 %
402 22-04-2020 18:52:17 21.6 C 20 %
403 22-04-2020 19:02:17 21.1 C 20 %
404 22-04-2020 19:12:17 21.2 C 20 %
405 22-04-2020 19:22:17 20.8 C 20 %
406 22-04-2020 19:32:18 20.4 C 20 %
407 22-04-2020 19:42:18 20.3 C 20 %
408 22-04-2020 19:52:17 20 C 20 %
409 22-04-2020 20:02:18 19.4 C 20 %
410 22-04-2020 20:12:18 18.4 C 20 %
411 22-04-2020 20:22:17 17 C 20 %
412 22-04-2020 20:32:17 16.3 C 20 %
413 22-04-2020 20:42:17 16.2 C 20 %
414 22-04-2020 20:52:17 15.9 C 20 %
415 22-04-2020 21:02:17 15.7 C 20 %
416 22-04-2020 21:12:17 15 C 20 %
417 22-04-2020 21:22:17 14.6 C 20 %
418 22-04-2020 21:32:17 14.4 C 20 %
419 22-04-2020 21:42:17 14.4 C 20 %
420 22-04-2020 21:52:17 14.1 C 20 %
421 22-04-2020 22:02:17 13.7 C 20 %
422 22-04-2020 22:12:17 13.8 C 20 %
423 22-04-2020 22:22:17 14.2 C 20 %
424 22-04-2020 22:32:17 13.6 C 20 %
425 22-04-2020 22:42:17 13.5 C 20 %
Sensor: Nr:Datum:Temp:Feuchte:
Aussen-T/F 426 22-04-2020 22:52:18 13.5 C 20 %
427 22-04-2020 23:02:17 13.7 C 20 %
428 22-04-2020 23:12:17 13.5 C 20 %
429 22-04-2020 23:22:17 13.2 C 20 %
430 22-04-2020 23:32:17 12.9 C 20 %
431 22-04-2020 23:42:17 13.2 C 20 %
432 22-04-2020 23:52:18 12.8 C 20 %
433 23-04-2020 00:02:17 12.6 C 20 %
434 23-04-2020 00:12:17 12.4 C 20 %
435 23-04-2020 00:22:17 12.4 C 20 %
436 23-04-2020 00:32:17 12.2 C 20 %
437 23-04-2020 00:42:17 12.2 C 20 %
438 23-04-2020 00:52:17 12.3 C 20 %
439 23-04-2020 01:02:17 12.1 C 20 %
440 23-04-2020 01:12:17 11.9 C 20 %
441 23-04-2020 01:22:18 11 C 20 %
442 23-04-2020 01:32:17 12 C 20 %
443 23-04-2020 01:42:17 10.9 C 20 %
444 23-04-2020 01:52:17 10.5 C 22 %
445 23-04-2020 02:02:17 9.7 C 25 %
446 23-04-2020 02:12:17 9.7 C 26 %
447 23-04-2020 02:22:18 9.7 C 25 %
448 23-04-2020 02:32:17 9.8 C 26 %
449 23-04-2020 02:42:17 9.6 C 25 %
450 23-04-2020 02:52:17 9.3 C 26 %
Sensor: Nr:Datum:Temp:Feuchte:
Aussen-T/F 451 23-04-2020 03:02:18 9.2 C 26 %
452 23-04-2020 03:12:18 9.2 C 26 %
453 23-04-2020 03:22:17 9.4 C 26 %
454 23-04-2020 03:32:17 9.4 C 26 %
455 23-04-2020 03:42:17 9.3 C 26 %
456 23-04-2020 03:52:17 9.1 C 26 %
457 23-04-2020 04:02:17 8.6 C 27 %
458 23-04-2020 04:12:17 8.1 C 29 %
459 23-04-2020 04:22:17 7.5 C 30 %
460 23-04-2020 04:32:17 7.2 C 32 %
461 23-04-2020 04:42:17 7.2 C 32 %
462 23-04-2020 04:52:17 6.9 C 33 %
463 23-04-2020 05:02:17 6.4 C 34 %
464 23-04-2020 05:12:17 6.2 C 34 %
465 23-04-2020 05:22:17 5.9 C 35 %
466 23-04-2020 05:32:17 6 C 35 %
467 23-04-2020 05:42:17 6 C 35 %
468 23-04-2020 05:52:17 5.8 C 36 %
469 23-04-2020 06:02:17 5.8 C 36 %
470 23-04-2020 06:12:18 5.4 C 36 %
471 23-04-2020 06:22:17 5.4 C 36 %
472 23-04-2020 06:32:18 5.3 C 36 %
473 23-04-2020 06:42:18 5.3 C 36 %
474 23-04-2020 06:52:17 5.3 C 36 %
475 23-04-2020 07:02:17 5.3 C 37 %
Sensor: Nr:Datum:Temp:Feuchte:
Aussen-T/F 476 23-04-2020 07:12:17 5.3 C 37 %
477 23-04-2020 07:22:17 5.2 C 37 %
478 23-04-2020 07:32:17 5.2 C 39 %
479 23-04-2020 07:42:17 5.2 C 39 %
480 23-04-2020 07:52:17 5.3 C 39 %
481 23-04-2020 08:02:17 5.4 C 39 %
482 23-04-2020 08:12:18 5.5 C 39 %
483 23-04-2020 08:22:18 5.9 C 39 %
484 23-04-2020 08:32:18 6.2 C 38 %
485 23-04-2020 08:42:18 6.5 C 38 %
486 23-04-2020 08:52:17 6.9 C 38 %
487 23-04-2020 09:02:17 7.7 C 36 %
488 23-04-2020 09:12:17 8.1 C 36 %
489 23-04-2020 09:22:17 8.6 C 35 %
490 23-04-2020 09:32:17 9.2 C 35 %
491 23-04-2020 09:42:17 9.7 C 34 %
492 23-04-2020 09:52:17 9.9 C 34 %
493 23-04-2020 10:02:18 10.5 C 33 %
494 23-04-2020 10:12:18 11 C 32 %
495 23-04-2020 10:22:17 11.8 C 30 %
496 23-04-2020 10:32:17 12.7 C 28 %
497 23-04-2020 10:42:17 13.2 C 27 %
498 23-04-2020 10:52:17 14.8 C 22 %
499 23-04-2020 11:02:18 16 C 20 %
500 23-04-2020 11:12:18 16.3 C 20 %
Sensor: Nr:Datum:Temp:Feuchte:
Aussen-T/F 501 23-04-2020 11:22:17 17.2 C 20 %
502 23-04-2020 11:32:17 17.4 C 20 %
503 23-04-2020 11:42:17 17.7 C 20 %
504 23-04-2020 11:52:18 17.9 C 20 %
505 23-04-2020 12:02:17 18.9 C 20 %
506 23-04-2020 12:12:17 18.2 C 20 %
507 23-04-2020 12:22:17 18 C 20 %
508 23-04-2020 12:32:18 18.5 C 20 %
509 23-04-2020 12:42:18 18.3 C 20 %
510 23-04-2020 12:52:17 18.4 C 20 %
511 23-04-2020 13:02:17 19.2 C 20 %
512 23-04-2020 13:12:17 19.5 C 20 %
513 23-04-2020 13:22:17 19.1 C 20 %
514 23-04-2020 13:32:17 19.2 C 20 %
515 23-04-2020 13:42:17 19.7 C 20 %
516 23-04-2020 13:52:17 20.1 C 20 %
517 23-04-2020 14:02:17 20.4 C 20 %
518 23-04-2020 14:12:17 20.7 C 20 %
519 23-04-2020 14:22:17 21.6 C 20 %
520 23-04-2020 14:32:17 27.4 C 20 %
521 23-04-2020 14:42:17 29.1 C 20 %
522 23-04-2020 14:52:17 29 C 20 %
523 23-04-2020 15:02:17 29.3 C 20 %
524 23-04-2020 15:12:17 29.5 C 20 %
525 23-04-2020 15:22:18 28.8 C 20 %
Sensor: Nr:Datum:Temp:Feuchte:
Aussen-T/F 526 23-04-2020 15:32:17 30.3 C 20 %
527 23-04-2020 15:42:17 31.4 C 20 %
528 23-04-2020 15:52:17 28.9 C 20 %
529 23-04-2020 16:02:18 27.7 C 20 %
530 23-04-2020 16:12:18 28.1 C 20 %
531 23-04-2020 16:22:17 28.4 C 20 %
532 23-04-2020 16:32:18 28.3 C 20 %
533 23-04-2020 16:42:18 29 C 20 %
534 23-04-2020 16:52:17 29.2 C 20 %
535 23-04-2020 17:02:17 31.6 C 20 %
536 23-04-2020 17:12:18 28.2 C 20 %
537 23-04-2020 17:22:17 28.6 C 20 %
538 23-04-2020 17:32:18 28.1 C 20 %
539 23-04-2020 17:42:18 28 C 20 %
540 23-04-2020 17:52:18 30.1 C 20 %
541 23-04-2020 18:02:17 27.1 C 20 %
542 23-04-2020 18:12:17 24.5 C 20 %
543 23-04-2020 18:22:17 23.9 C 20 %
544 23-04-2020 18:32:17 23.6 C 20 %
545 23-04-2020 18:42:17 23.7 C 20 %
546 23-04-2020 18:52:17 23.2 C 20 %
547 23-04-2020 19:02:17 22.5 C 20 %
548 23-04-2020 19:12:17 22.4 C 20 %
549 23-04-2020 19:22:17 22 C 20 %
550 23-04-2020 19:32:18 21.2 C 20 %
Sensor: Nr:Datum:Temp:Feuchte:
Aussen-T/F 551 23-04-2020 19:42:18 20 C 20 %
552 23-04-2020 19:52:17 18.6 C 20 %
553 23-04-2020 20:02:18 18.6 C 20 %
554 23-04-2020 20:12:18 17.9 C 20 %
555 23-04-2020 20:22:17 17.2 C 20 %
556 23-04-2020 20:32:18 16.5 C 20 %
557 23-04-2020 20:42:18 15.5 C 20 %
558 23-04-2020 20:52:18 14.3 C 20 %
559 23-04-2020 21:02:18 14 C 20 %
560 23-04-2020 21:12:18 14.1 C 20 %
561 23-04-2020 21:22:17 13.5 C 20 %
562 23-04-2020 21:32:17 13.1 C 20 %
563 23-04-2020 21:42:17 12.9 C 20 %
564 23-04-2020 21:52:17 12.5 C 20 %
565 23-04-2020 22:02:17 12 C 23 %
566 23-04-2020 22:12:17 11.6 C 25 %
567 23-04-2020 22:22:17 11.5 C 25 %
568 23-04-2020 22:32:18 11 C 26 %
569 23-04-2020 22:42:18 11.1 C 26 %
570 23-04-2020 22:52:18 10.8 C 26 %
571 23-04-2020 23:02:18 10.4 C 27 %
572 23-04-2020 23:12:18 10.3 C 27 %
573 23-04-2020 23:22:18 9.6 C 29 %
574 23-04-2020 23:32:17 9.6 C 29 %
575 23-04-2020 23:42:17 9.6 C 29 %
Sensor: Nr:Datum:Temp:Feuchte:
Aussen-T/F 576 23-04-2020 23:52:17 9.2 C 30 %
577 24-04-2020 00:02:18 9.2 C 30 %
578 24-04-2020 00:12:18 9.3 C 30 %
579 24-04-2020 00:22:17 9.2 C 30 %
580 24-04-2020 00:32:18 8.6 C 31 %
581 24-04-2020 00:42:18 8.4 C 31 %
582 24-04-2020 00:52:17 8.3 C 32 %
583 24-04-2020 01:02:18 8.1 C 32 %
584 24-04-2020 01:12:18 8.3 C 33 %
585 24-04-2020 01:22:17 8.1 C 32 %
586 24-04-2020 01:32:18 8.1 C 33 %
587 24-04-2020 01:42:18 8.2 C 33 %
588 24-04-2020 01:52:17 7.8 C 33 %
589 24-04-2020 02:02:17 7.5 C 34 %
590 24-04-2020 02:12:17 7.1 C 34 %
591 24-04-2020 02:22:17 7 C 35 %
592 24-04-2020 02:32:18 7.2 C 35 %
593 24-04-2020 02:42:18 6.8 C 36 %
594 24-04-2020 02:52:18 7 C 35 %
595 24-04-2020 03:02:17 7 C 35 %
596 24-04-2020 03:12:18 6.8 C 36 %
597 24-04-2020 03:22:17 6.2 C 36 %
598 24-04-2020 03:32:17 6.4 C 37 %
599 24-04-2020 03:42:17 6.3 C 37 %
600 24-04-2020 03:52:17 6.2 C 37 %
Sensor: Nr:Datum:Temp:Feuchte:
Aussen-T/F 601 24-04-2020 04:02:17 6.2 C 37 %
602 24-04-2020 04:12:17 6.1 C 37 %
603 24-04-2020 04:22:17 6 C 37 %
604 24-04-2020 04:32:17 5.9 C 38 %
605 24-04-2020 04:42:17 6.2 C 38 %
606 24-04-2020 04:52:17 6.3 C 38 %
607 24-04-2020 05:02:17 6.2 C 38 %
608 24-04-2020 05:12:17 6 C 38 %
609 24-04-2020 05:22:17 5.9 C 39 %
610 24-04-2020 05:32:18 6.3 C 38 %
611 24-04-2020 05:42:18 6.2 C 38 %
612 24-04-2020 05:52:17 6.1 C 38 %
613 24-04-2020 06:02:17 6.1 C 38 %
614 24-04-2020 06:12:17 5.9 C 39 %
615 24-04-2020 06:22:18 6 C 39 %
616 24-04-2020 06:32:17 6 C 38 %
617 24-04-2020 06:42:17 6 C 39 %
618 24-04-2020 06:52:17 6.2 C 39 %
619 24-04-2020 07:02:17 6.3 C 38 %
620 24-04-2020 07:12:17 6.3 C 39 %
621 24-04-2020 07:22:17 6.3 C 39 %
622 24-04-2020 07:32:18 6.3 C 39 %
623 24-04-2020 07:42:18 6.5 C 39 %
624 24-04-2020 07:52:17 6.7 C 39 %
625 24-04-2020 08:02:18 6.8 C 39 %
Sensor: Nr:Datum:Temp:Feuchte:
Aussen-T/F 626 24-04-2020 08:12:18 7.3 C 38 %
627 24-04-2020 08:22:17 8.2 C 36 %
628 24-04-2020 08:32:17 9 C 35 %
629 24-04-2020 08:42:17 9.6 C 35 %
630 24-04-2020 08:52:17 9.9 C 34 %
631 24-04-2020 09:02:17 10.4 C 33 %
632 24-04-2020 09:12:18 11 C 32 %
633 24-04-2020 09:22:17 11.5 C 31 %
634 24-04-2020 09:32:18 11.9 C 31 %
635 24-04-2020 09:42:18 12.5 C 30 %
636 24-04-2020 09:52:17 12.4 C 30 %
637 24-04-2020 10:02:17 12.8 C 30 %
638 24-04-2020 10:12:17 13.1 C 29 %
639 24-04-2020 10:22:17 14 C 28 %
640 24-04-2020 10:32:17 14.2 C 28 %
641 24-04-2020 10:42:17 14.6 C 27 %
642 24-04-2020 10:52:17 15 C 26 %
643 24-04-2020 11:02:17 15.6 C 26 %
644 24-04-2020 11:12:18 15.6 C 26 %
645 24-04-2020 11:22:17 16.5 C 25 %
646 24-04-2020 11:32:18 16.6 C 24 %
647 24-04-2020 11:42:18 17 C 24 %
648 24-04-2020 11:52:17 17 C 23 %
649 24-04-2020 12:02:17 17.9 C 23 %
650 24-04-2020 12:12:17 18.1 C 21 %
Sensor: Nr:Datum:Temp:Feuchte:
Aussen-T/F 651 24-04-2020 12:22:17 18.2 C 21 %
652 24-04-2020 12:32:18 18.4 C 21 %
653 24-04-2020 12:42:18 18.9 C 20 %
654 24-04-2020 12:52:18 19.3 C 20 %
655 24-04-2020 13:02:17 19.6 C 20 %
656 24-04-2020 13:12:17 20.2 C 20 %
657 24-04-2020 13:22:17 20.5 C 20 %
658 24-04-2020 13:32:18 20.7 C 20 %
659 24-04-2020 13:42:18 21 C 20 %
660 24-04-2020 13:52:17 21.3 C 20 %
661 24-04-2020 14:02:17 21.8 C 20 %
662 24-04-2020 14:12:17 22.2 C 20 %
663 24-04-2020 14:22:17 23.5 C 20 %
664 24-04-2020 14:32:17 26.8 C 20 %
665 24-04-2020 14:42:17 28.5 C 20 %
666 24-04-2020 14:52:17 27.1 C 20 %
667 24-04-2020 15:02:18 28 C 20 %
668 24-04-2020 15:12:18 31 C 20 %
669 24-04-2020 15:22:17 27.6 C 20 %
670 24-04-2020 15:32:17 28.1 C 20 %
671 24-04-2020 15:42:18 27.5 C 20 %
672 24-04-2020 15:52:17 28.8 C 20 %
673 24-04-2020 16:02:18 28.7 C 20 %
674 24-04-2020 16:12:18 28.7 C 20 %
675 24-04-2020 16:22:18 27.2 C 20 %
Sensor: Nr:Datum:Temp:Feuchte:
Aussen-T/F 676 24-04-2020 16:32:18 26.8 C 20 %
677 24-04-2020 16:42:18 28 C 20 %
678 24-04-2020 16:52:17 26.3 C 20 %
679 24-04-2020 17:02:17 26 C 20 %
680 24-04-2020 17:12:17 26.7 C 20 %
681 24-04-2020 17:22:18 26.4 C 20 %
682 24-04-2020 17:32:18 26.3 C 20 %
683 24-04-2020 17:42:18 24.2 C 20 %
684 24-04-2020 17:52:17 26 C 20 %
685 24-04-2020 18:02:18 24.1 C 20 %
686 24-04-2020 18:12:18 22.3 C 20 %
687 24-04-2020 18:22:17 22.2 C 20 %
688 24-04-2020 18:32:17 22 C 20 %
689 24-04-2020 18:42:17 20.9 C 20 %
690 24-04-2020 18:52:18 21 C 20 %
691 24-04-2020 19:02:17 20.5 C 20 %
692 24-04-2020 19:12:17 20.3 C 20 %
693 24-04-2020 19:23:17 20 C 20 %
694 24-04-2020 19:32:17 19.9 C 20 %
695 24-04-2020 19:42:18 19.6 C 20 %
696 24-04-2020 19:53:17 19.2 C 20 %
697 24-04-2020 20:02:18 19 C 20 %
698 24-04-2020 20:12:18 18.5 C 20 %
699 24-04-2020 20:22:17 17.7 C 20 %
700 24-04-2020 20:32:18 17.3 C 20 %
Sensor: Nr:Datum:Temp:Feuchte:
Aussen-T/F 701 24-04-2020 20:42:18 16.8 C 20 %
702 24-04-2020 20:52:18 16.1 C 20 %
703 24-04-2020 21:02:18 15.9 C 20 %
704 24-04-2020 21:12:18 15.5 C 20 %
705 24-04-2020 21:23:17 15.4 C 20 %
706 24-04-2020 21:33:17 15 C 20 %
707 24-04-2020 21:42:17 15.1 C 20 %
708 24-04-2020 21:52:17 14.7 C 20 %
709 24-04-2020 22:03:17 14.4 C 20 %
710 24-04-2020 22:13:17 14.1 C 20 %
711 24-04-2020 22:22:18 14.2 C 20 %
712 24-04-2020 22:32:18 14.4 C 20 %
713 24-04-2020 22:42:18 13.9 C 20 %
714 24-04-2020 22:52:18 13.3 C 20 %
715 24-04-2020 23:02:18 13.2 C 20 %
716 24-04-2020 23:12:18 13.2 C 20 %
717 24-04-2020 23:22:17 12.7 C 20 %
718 24-04-2020 23:33:17 12.5 C 20 %
719 24-04-2020 23:43:17 13 C 20 %
720 24-04-2020 23:53:17 12.4 C 20 %
Sensor: Nr:Datum:Temp:Feuchte:
G-T/H 1 20-04-2020 00:02:17 14.1 C 59 %
2 20-04-2020 00:12:17 14.1 C 59 %
3 20-04-2020 00:22:17 14.2 C 59 %
4 20-04-2020 00:32:18 14.1 C 59 %
5 20-04-2020 00:42:18 14.1 C 59 %
6 20-04-2020 00:52:18 14.1 C 59 %
7 20-04-2020 01:02:17 14.1 C 59 %
8 20-04-2020 01:12:17 14.1 C 59 %
9 20-04-2020 01:22:17 14.1 C 59 %
10 20-04-2020 01:32:17 14.1 C 59 %
11 20-04-2020 01:42:17 14.1 C 59 %
12 20-04-2020 01:52:17 14 C 59 %
13 20-04-2020 02:02:18 14 C 59 %
14 20-04-2020 02:12:18 14 C 59 %
15 20-04-2020 02:22:17 14 C 59 %
16 20-04-2020 02:32:18 14 C 59 %
17 20-04-2020 02:42:18 14 C 58 %
18 20-04-2020 02:52:17 14 C 58 %
19 20-04-2020 03:02:17 13.9 C 59 %
20 20-04-2020 03:12:17 13.9 C 59 %
21 20-04-2020 03:22:17 13.9 C 59 %
22 20-04-2020 03:32:17 13.9 C 59 %
23 20-04-2020 03:42:17 13.9 C 59 %
24 20-04-2020 03:52:17 13.9 C 59 %
25 20-04-2020 04:02:17 13.8 C 58 %
Sensor: Nr:Datum:Temp:Feuchte:
G-T/H 26 20-04-2020 04:12:17 13.8 C 58 %
27 20-04-2020 04:22:17 13.8 C 58 %
28 20-04-2020 04:32:18 13.8 C 58 %
29 20-04-2020 04:42:18 13.8 C 58 %
30 20-04-2020 04:52:17 13.8 C 58 %
31 20-04-2020 05:02:18 13.8 C 58 %
32 20-04-2020 05:12:18 13.7 C 59 %
33 20-04-2020 05:22:17 13.7 C 59 %
34 20-04-2020 05:32:17 13.7 C 59 %
35 20-04-2020 05:42:18 13.7 C 59 %
36 20-04-2020 05:52:17 13.7 C 59 %
37 20-04-2020 06:02:18 13.6 C 59 %
38 20-04-2020 06:12:18 13.6 C 59 %
39 20-04-2020 06:22:17 13.6 C 59 %
40 20-04-2020 06:32:17 13.6 C 59 %
41 20-04-2020 06:42:17 13.5 C 59 %
42 20-04-2020 06:52:17 13.6 C 59 %
43 20-04-2020 07:02:17 13.5 C 59 %
44 20-04-2020 07:12:17 13.5 C 59 %
45 20-04-2020 07:22:17 13.5 C 59 %
46 20-04-2020 07:32:17 13.5 C 59 %
47 20-04-2020 07:42:17 13.4 C 59 %
48 20-04-2020 07:52:17 13.4 C 59 %
49 20-04-2020 08:02:18 13.4 C 59 %
50 20-04-2020 08:12:18 13.4 C 59 %
Sensor: Nr:Datum:Temp:Feuchte:
G-T/H 51 20-04-2020 08:22:17 13.4 C 59 %
52 20-04-2020 08:32:17 13.4 C 59 %
53 20-04-2020 08:42:18 13.3 C 59 %
54 20-04-2020 08:52:18 13.4 C 59 %
55 20-04-2020 09:02:17 13.3 C 59 %
56 20-04-2020 09:12:17 13.3 C 59 %
57 20-04-2020 09:22:17 13.3 C 59 %
58 20-04-2020 09:32:17 13.3 C 59 %
59 20-04-2020 09:42:17 13.3 C 59 %
60 20-04-2020 09:52:18 13.2 C 59 %
61 20-04-2020 10:02:18 13.2 C 59 %
62 20-04-2020 10:12:18 13.2 C 59 %
63 20-04-2020 10:22:17 13.2 C 59 %
64 20-04-2020 10:32:17 13.2 C 59 %
65 20-04-2020 10:42:18 13.2 C 59 %
66 20-04-2020 10:52:17 13.2 C 59 %
67 20-04-2020 11:02:18 13.1 C 59 %
68 20-04-2020 11:12:18 13.1 C 59 %
69 20-04-2020 11:22:17 13.1 C 59 %
70 20-04-2020 11:32:17 13.1 C 60 %
71 20-04-2020 11:42:18 13.1 C 60 %
72 20-04-2020 11:52:17 13.1 C 60 %
73 20-04-2020 12:02:17 13.1 C 61 %
74 20-04-2020 12:12:17 13.1 C 61 %
75 20-04-2020 12:22:17 13.1 C 61 %
Sensor: Nr:Datum:Temp:Feuchte:
G-T/H 76 20-04-2020 12:32:17 13.1 C 61 %
77 20-04-2020 12:42:17 13.1 C 61 %
78 20-04-2020 12:52:17 13.1 C 61 %
79 20-04-2020 13:02:17 13.1 C 61 %
80 20-04-2020 13:12:17 13.1 C 62 %
81 20-04-2020 13:22:17 13.1 C 62 %
82 20-04-2020 13:32:17 13.2 C 61 %
83 20-04-2020 13:42:17 13.2 C 61 %
84 20-04-2020 13:52:17 13.2 C 61 %
85 20-04-2020 14:02:17 13.2 C 60 %
86 20-04-2020 14:12:17 13.2 C 60 %
87 20-04-2020 14:22:17 13.2 C 60 %
88 20-04-2020 14:32:18 13.2 C 60 %
89 20-04-2020 14:42:18 13.2 C 59 %
90 20-04-2020 14:52:18 13.3 C 59 %
91 20-04-2020 15:02:17 13.3 C 59 %
92 20-04-2020 15:12:17 13.3 C 59 %
93 20-04-2020 15:22:17 13.3 C 59 %
94 20-04-2020 15:32:17 13.3 C 60 %
95 20-04-2020 15:42:17 13.3 C 60 %
96 20-04-2020 15:52:17 13.3 C 60 %
97 20-04-2020 16:02:17 13.4 C 60 %
98 20-04-2020 16:12:17 13.3 C 60 %
99 20-04-2020 16:22:17 13.4 C 60 %
100 20-04-2020 16:32:17 13.4 C 60 %
Sensor: Nr:Datum:Temp:Feuchte:
G-T/H 101 20-04-2020 16:42:17 13.4 C 60 %
102 20-04-2020 16:52:17 13.4 C 60 %
103 20-04-2020 17:02:17 13.4 C 60 %
104 20-04-2020 17:12:17 13.4 C 60 %
105 20-04-2020 17:22:17 13.4 C 60 %
106 20-04-2020 17:32:17 13.5 C 60 %
107 20-04-2020 17:42:17 13.5 C 60 %
108 20-04-2020 17:52:17 13.5 C 61 %
109 20-04-2020 18:02:18 13.5 C 61 %
110 20-04-2020 18:12:18 13.5 C 61 %
111 20-04-2020 18:22:18 13.5 C 61 %
112 20-04-2020 18:32:17 13.5 C 61 %
113 20-04-2020 18:42:18 13.6 C 61 %
114 20-04-2020 18:52:18 13.6 C 61 %
115 20-04-2020 19:02:17 13.6 C 61 %
116 20-04-2020 19:12:17 13.6 C 61 %
117 20-04-2020 19:22:17 13.7 C 61 %
118 20-04-2020 19:32:17 13.7 C 61 %
119 20-04-2020 19:42:17 13.7 C 61 %
120 20-04-2020 19:52:17 13.6 C 61 %
121 20-04-2020 20:02:17 13.7 C 61 %
122 20-04-2020 20:12:17 13.7 C 61 %
123 20-04-2020 20:22:17 13.7 C 60 %
124 20-04-2020 20:32:17 13.7 C 60 %
125 20-04-2020 20:42:17 13.6 C 60 %
Sensor: Nr:Datum:Temp:Feuchte:
G-T/H 126 20-04-2020 20:52:17 13.6 C 60 %
127 20-04-2020 21:02:17 13.6 C 59 %
128 20-04-2020 21:12:17 13.6 C 60 %
129 20-04-2020 21:22:17 13.6 C 60 %
130 20-04-2020 21:32:17 13.6 C 60 %
131 20-04-2020 21:42:17 13.6 C 60 %
132 20-04-2020 21:52:17 13.6 C 60 %
133 20-04-2020 22:02:17 13.6 C 60 %
134 20-04-2020 22:12:17 13.6 C 60 %
135 20-04-2020 22:22:17 13.6 C 60 %
136 20-04-2020 22:32:17 13.6 C 60 %
137 20-04-2020 22:42:17 13.6 C 60 %
138 20-04-2020 22:52:18 13.6 C 60 %
139 20-04-2020 23:02:17 13.6 C 60 %
140 20-04-2020 23:12:17 13.6 C 60 %
141 20-04-2020 23:22:17 13.6 C 60 %
142 20-04-2020 23:32:18 13.6 C 60 %
143 20-04-2020 23:42:18 13.6 C 59 %
144 20-04-2020 23:52:17 13.6 C 59 %
145 21-04-2020 00:02:17 13.5 C 59 %
146 21-04-2020 00:12:17 13.6 C 59 %
147 21-04-2020 00:22:17 13.5 C 59 %
148 21-04-2020 00:32:17 13.5 C 59 %
149 21-04-2020 00:42:17 13.5 C 59 %
150 21-04-2020 00:52:17 13.6 C 58 %
Sensor: Nr:Datum:Temp:Feuchte:
G-T/H 151 21-04-2020 01:02:18 13.5 C 58 %
152 21-04-2020 01:12:18 13.5 C 58 %
153 21-04-2020 01:22:18 13.6 C 58 %
154 21-04-2020 01:32:18 13.5 C 58 %
155 21-04-2020 01:42:18 13.5 C 58 %
156 21-04-2020 01:52:17 13.5 C 58 %
157 21-04-2020 02:02:17 13.5 C 58 %
158 21-04-2020 02:12:18 13.5 C 58 %
159 21-04-2020 02:22:17 13.5 C 58 %
160 21-04-2020 02:32:18 13.5 C 58 %
161 21-04-2020 02:42:18 13.5 C 58 %
162 21-04-2020 02:52:17 13.4 C 58 %
163 21-04-2020 03:02:17 13.4 C 58 %
164 21-04-2020 03:12:17 13.4 C 58 %
165 21-04-2020 03:22:18 13.4 C 58 %
166 21-04-2020 03:32:17 13.4 C 58 %
167 21-04-2020 03:42:17 13.4 C 58 %
168 21-04-2020 03:52:18 13.4 C 58 %
169 21-04-2020 04:02:18 13.4 C 58 %
170 21-04-2020 04:12:18 13.4 C 58 %
171 21-04-2020 04:22:17 13.4 C 58 %
172 21-04-2020 04:32:17 13.4 C 58 %
173 21-04-2020 04:42:17 13.3 C 58 %
174 21-04-2020 04:52:17 13.3 C 58 %
175 21-04-2020 05:02:17 13.3 C 58 %
Sensor: Nr:Datum:Temp:Feuchte:
G-T/H 176 21-04-2020 05:12:17 13.3 C 58 %
177 21-04-2020 05:22:17 13.3 C 58 %
178 21-04-2020 05:32:18 13.3 C 58 %
179 21-04-2020 05:42:18 13.2 C 58 %
180 21-04-2020 05:52:17 13.2 C 58 %
181 21-04-2020 06:02:17 13.2 C 58 %
182 21-04-2020 06:12:17 13.2 C 58 %
183 21-04-2020 06:22:18 13.2 C 58 %
184 21-04-2020 06:32:18 13.2 C 58 %
185 21-04-2020 06:42:18 13.2 C 58 %
186 21-04-2020 06:52:17 13.2 C 58 %
187 21-04-2020 07:02:18 13.1 C 58 %
188 21-04-2020 07:12:18 13.1 C 58 %
189 21-04-2020 07:22:17 13.1 C 58 %
190 21-04-2020 07:32:17 13.1 C 58 %
191 21-04-2020 07:42:17 13.1 C 58 %
192 21-04-2020 07:52:17 13.1 C 58 %
193 21-04-2020 08:02:17 13.1 C 58 %
194 21-04-2020 08:12:17 13.1 C 58 %
195 21-04-2020 08:22:17 13 C 58 %
196 21-04-2020 08:32:17 13 C 58 %
197 21-04-2020 08:42:18 13 C 58 %
198 21-04-2020 08:52:17 13 C 58 %
199 21-04-2020 09:02:17 13 C 58 %
200 21-04-2020 09:12:17 13 C 58 %
Sensor: Nr:Datum:Temp:Feuchte:
G-T/H 201 21-04-2020 09:22:17 13 C 58 %
202 21-04-2020 09:32:17 12.9 C 59 %
203 21-04-2020 09:42:17 12.9 C 59 %
204 21-04-2020 09:52:17 12.9 C 59 %
205 21-04-2020 10:02:17 12.9 C 59 %
206 21-04-2020 10:12:17 12.9 C 59 %
207 21-04-2020 10:22:17 12.9 C 59 %
208 21-04-2020 10:32:17 12.9 C 59 %
209 21-04-2020 10:42:17 12.8 C 59 %
210 21-04-2020 10:52:17 12.8 C 59 %
211 21-04-2020 11:02:17 12.8 C 59 %
212 21-04-2020 11:12:17 12.8 C 59 %
213 21-04-2020 11:22:17 12.8 C 59 %
214 21-04-2020 11:32:18 12.8 C 59 %
215 21-04-2020 11:42:18 12.8 C 59 %
216 21-04-2020 11:52:18 12.8 C 59 %
217 21-04-2020 12:02:17 12.8 C 59 %
218 21-04-2020 12:12:18 12.8 C 60 %
219 21-04-2020 12:22:17 12.9 C 60 %
220 21-04-2020 12:32:17 12.9 C 60 %
221 21-04-2020 12:42:17 12.9 C 60 %
222 21-04-2020 12:52:17 12.9 C 60 %
223 21-04-2020 13:02:17 12.9 C 61 %
224 21-04-2020 13:12:17 12.9 C 61 %
225 21-04-2020 13:22:17 12.9 C 61 %
Sensor: Nr:Datum:Temp:Feuchte:
G-T/H 226 21-04-2020 13:32:17 12.9 C 61 %
227 21-04-2020 13:42:17 13 C 60 %
228 21-04-2020 13:52:17 13 C 60 %
229 21-04-2020 14:02:17 13 C 60 %
230 21-04-2020 14:12:17 13 C 59 %
231 21-04-2020 14:22:17 13 C 59 %
232 21-04-2020 14:32:17 13.1 C 59 %
233 21-04-2020 14:42:17 13.1 C 59 %
234 21-04-2020 14:52:17 13.1 C 59 %
235 21-04-2020 15:02:17 13.1 C 59 %
236 21-04-2020 15:12:17 13.1 C 59 %
237 21-04-2020 15:22:17 13.1 C 59 %
238 21-04-2020 15:32:18 13.2 C 59 %
239 21-04-2020 15:42:18 13.2 C 59 %
240 21-04-2020 15:52:17 13.2 C 59 %
241 21-04-2020 16:02:18 13.2 C 59 %
242 21-04-2020 16:12:18 13.2 C 59 %
243 21-04-2020 16:22:17 13.3 C 59 %
244 21-04-2020 16:32:17 13.3 C 59 %
245 21-04-2020 16:42:17 13.3 C 59 %
246 21-04-2020 16:52:17 13.3 C 59 %
247 21-04-2020 17:02:17 13.4 C 59 %
248 21-04-2020 17:12:17 13.6 C 55 %
249 21-04-2020 17:22:18 13.5 C 55 %
250 21-04-2020 17:32:17 13.5 C 56 %
Sensor: Nr:Datum:Temp:Feuchte:
G-T/H 251 21-04-2020 17:42:17 13.5 C 57 %
252 21-04-2020 17:52:17 13.5 C 57 %
253 21-04-2020 18:02:18 13.5 C 58 %
254 21-04-2020 18:12:18 13.5 C 58 %
255 21-04-2020 18:22:17 13.5 C 58 %
256 21-04-2020 18:32:17 13.5 C 58 %
257 21-04-2020 18:42:17 13.6 C 59 %
258 21-04-2020 18:52:18 13.6 C 59 %
259 21-04-2020 19:02:17 13.6 C 59 %
260 21-04-2020 19:12:17 13.6 C 59 %
261 21-04-2020 19:22:17 13.6 C 59 %
262 21-04-2020 19:32:18 13.6 C 59 %
263 21-04-2020 19:42:18 13.6 C 60 %
264 21-04-2020 19:52:17 13.6 C 60 %
265 21-04-2020 20:02:17 13.6 C 60 %
266 21-04-2020 20:12:17 13.7 C 60 %
267 21-04-2020 20:22:17 13.6 C 60 %
268 21-04-2020 20:32:17 13.6 C 60 %
269 21-04-2020 20:42:17 13.7 C 60 %
270 21-04-2020 20:52:17 13.6 C 60 %
271 21-04-2020 21:02:18 13.6 C 60 %
272 21-04-2020 21:12:18 13.6 C 60 %
273 21-04-2020 21:22:17 13.6 C 60 %
274 21-04-2020 21:32:17 13.6 C 60 %
275 21-04-2020 21:42:17 13.6 C 60 %
Sensor: Nr:Datum:Temp:Feuchte:
G-T/H 276 21-04-2020 21:52:18 13.6 C 60 %
277 21-04-2020 22:02:17 13.6 C 60 %
278 21-04-2020 22:12:17 13.7 C 60 %
279 21-04-2020 22:22:17 13.6 C 60 %
280 21-04-2020 22:32:17 13.7 C 60 %
281 21-04-2020 22:42:17 13.6 C 60 %
282 21-04-2020 22:52:18 13.6 C 60 %
283 21-04-2020 23:02:18 13.6 C 60 %
284 21-04-2020 23:12:18 13.6 C 60 %
285 21-04-2020 23:22:17 13.7 C 60 %
286 21-04-2020 23:32:18 13.6 C 60 %
287 21-04-2020 23:42:18 13.7 C 60 %
288 21-04-2020 23:52:18 13.6 C 60 %
289 22-04-2020 00:02:18 13.6 C 60 %
290 22-04-2020 00:12:18 13.6 C 60 %
291 22-04-2020 00:22:17 13.7 C 60 %
292 22-04-2020 00:32:18 13.6 C 60 %
293 22-04-2020 00:42:18 13.6 C 60 %
294 22-04-2020 00:52:17 13.6 C 60 %
295 22-04-2020 01:02:17 13.6 C 60 %
296 22-04-2020 01:12:17 13.6 C 60 %
297 22-04-2020 01:22:17 13.6 C 60 %
298 22-04-2020 01:32:18 13.6 C 60 %
299 22-04-2020 01:42:18 13.6 C 59 %
300 22-04-2020 01:52:17 13.6 C 59 %
Sensor: Nr:Datum:Temp:Feuchte:
G-T/H 301 22-04-2020 02:02:17 13.6 C 59 %
302 22-04-2020 02:12:17 13.6 C 59 %
303 22-04-2020 02:22:17 13.6 C 59 %
304 22-04-2020 02:32:17 13.5 C 59 %
305 22-04-2020 02:42:17 13.5 C 59 %
306 22-04-2020 02:52:17 13.5 C 59 %
307 22-04-2020 03:02:17 13.6 C 59 %
308 22-04-2020 03:12:17 13.5 C 59 %
309 22-04-2020 03:22:18 13.5 C 59 %
310 22-04-2020 03:32:18 13.5 C 59 %
311 22-04-2020 03:42:18 13.5 C 58 %
312 22-04-2020 03:52:17 13.5 C 58 %
313 22-04-2020 04:02:18 13.5 C 58 %
314 22-04-2020 04:12:18 13.5 C 58 %
315 22-04-2020 04:22:17 13.5 C 58 %
316 22-04-2020 04:32:18 13.4 C 58 %
317 22-04-2020 04:42:18 13.4 C 58 %
318 22-04-2020 04:52:17 13.5 C 58 %
319 22-04-2020 05:02:18 13.4 C 58 %
320 22-04-2020 05:12:18 13.4 C 58 %
321 22-04-2020 05:22:17 13.4 C 58 %
322 22-04-2020 05:32:17 13.4 C 58 %
323 22-04-2020 05:42:18 13.4 C 58 %
324 22-04-2020 05:52:17 13.4 C 58 %
325 22-04-2020 06:02:18 13.3 C 58 %
Sensor: Nr:Datum:Temp:Feuchte:
G-T/H 326 22-04-2020 06:12:18 13.3 C 58 %
327 22-04-2020 06:22:17 13.3 C 58 %
328 22-04-2020 06:32:17 13.3 C 58 %
329 22-04-2020 06:42:17 13.3 C 58 %
330 22-04-2020 06:52:17 13.3 C 58 %
331 22-04-2020 07:02:17 13.3 C 58 %
332 22-04-2020 07:12:17 13.2 C 58 %
333 22-04-2020 07:22:18 13.2 C 58 %
334 22-04-2020 07:32:17 13.2 C 58 %
335 22-04-2020 07:42:17 13.2 C 58 %
336 22-04-2020 07:52:17 13.2 C 58 %
337 22-04-2020 08:02:17 13.2 C 58 %
338 22-04-2020 08:12:17 13.2 C 58 %
339 22-04-2020 08:22:17 13.2 C 58 %
340 22-04-2020 08:32:17 13.1 C 58 %
341 22-04-2020 08:42:17 13.1 C 58 %
342 22-04-2020 08:52:18 13.1 C 58 %
343 22-04-2020 09:02:18 13.1 C 58 %
344 22-04-2020 09:12:18 13.1 C 58 %
345 22-04-2020 09:22:17 13.1 C 58 %
346 22-04-2020 09:32:17 13.1 C 58 %
347 22-04-2020 09:42:17 13.1 C 58 %
348 22-04-2020 09:52:17 13.1 C 58 %
349 22-04-2020 10:02:17 13.1 C 58 %
350 22-04-2020 10:12:17 13 C 58 %
Sensor: Nr:Datum:Temp:Feuchte:
G-T/H 351 22-04-2020 10:22:17 13 C 58 %
352 22-04-2020 10:32:17 13 C 58 %
353 22-04-2020 10:42:17 13 C 59 %
354 22-04-2020 10:52:17 13 C 59 %
355 22-04-2020 11:02:17 13 C 59 %
356 22-04-2020 11:12:17 13 C 59 %
357 22-04-2020 11:22:17 13 C 59 %
358 22-04-2020 11:32:17 13 C 59 %
359 22-04-2020 11:42:17 13 C 60 %
360 22-04-2020 11:52:18 13 C 60 %
361 22-04-2020 12:02:18 13 C 60 %
362 22-04-2020 12:12:18 13 C 60 %
363 22-04-2020 12:22:17 13 C 60 %
364 22-04-2020 12:32:17 13 C 60 %
365 22-04-2020 12:42:17 13.1 C 60 %
366 22-04-2020 12:52:18 13.1 C 60 %
367 22-04-2020 13:02:17 13.1 C 60 %
368 22-04-2020 13:12:17 13.1 C 60 %
369 22-04-2020 13:22:17 13.1 C 60 %
370 22-04-2020 13:32:17 13.1 C 60 %
371 22-04-2020 13:42:17 13.1 C 60 %
372 22-04-2020 13:52:17 13.1 C 60 %
373 22-04-2020 14:02:17 13.2 C 60 %
374 22-04-2020 14:12:17 13.2 C 60 %
375 22-04-2020 14:22:17 13.2 C 60 %
Sensor: Nr:Datum:Temp:Feuchte:
G-T/H 376 22-04-2020 14:32:17 13.2 C 60 %
377 22-04-2020 14:42:17 13.2 C 60 %
378 22-04-2020 14:52:17 13.3 C 60 %
379 22-04-2020 15:02:17 13.3 C 60 %
380 22-04-2020 15:12:18 13.3 C 60 %
381 22-04-2020 15:22:17 13.3 C 60 %
382 22-04-2020 15:32:17 13.3 C 60 %
383 22-04-2020 15:42:17 13.3 C 60 %
384 22-04-2020 15:52:17 13.4 C 61 %
385 22-04-2020 16:02:17 13.4 C 61 %
386 22-04-2020 16:12:17 13.4 C 61 %
387 22-04-2020 16:22:17 13.4 C 61 %
388 22-04-2020 16:32:18 13.5 C 61 %
389 22-04-2020 16:42:18 13.5 C 61 %
390 22-04-2020 16:52:17 13.5 C 61 %
391 22-04-2020 17:02:17 13.5 C 61 %
392 22-04-2020 17:12:17 13.6 C 61 %
393 22-04-2020 17:22:17 13.6 C 61 %
394 22-04-2020 17:32:17 13.6 C 61 %
395 22-04-2020 17:42:17 13.6 C 61 %
396 22-04-2020 17:52:17 13.7 C 61 %
397 22-04-2020 18:02:17 13.7 C 60 %
398 22-04-2020 18:12:17 13.7 C 60 %
399 22-04-2020 18:22:17 13.7 C 59 %
400 22-04-2020 18:32:17 13.8 C 59 %
Sensor: Nr:Datum:Temp:Feuchte:
G-T/H 401 22-04-2020 18:42:17 13.8 C 59 %
402 22-04-2020 18:52:17 13.8 C 60 %
403 22-04-2020 19:02:17 13.8 C 60 %
404 22-04-2020 19:12:17 13.8 C 60 %
405 22-04-2020 19:22:17 13.8 C 60 %
406 22-04-2020 19:32:18 13.8 C 60 %
407 22-04-2020 19:42:18 13.8 C 61 %
408 22-04-2020 19:52:17 13.8 C 61 %
409 22-04-2020 20:02:18 13.8 C 61 %
410 22-04-2020 20:12:18 13.9 C 61 %
411 22-04-2020 20:22:17 13.8 C 61 %
412 22-04-2020 20:32:17 13.9 C 61 %
413 22-04-2020 20:42:17 13.9 C 61 %
414 22-04-2020 20:52:17 13.9 C 61 %
415 22-04-2020 21:02:17 13.8 C 60 %
416 22-04-2020 21:12:17 13.8 C 60 %
417 22-04-2020 21:22:17 13.9 C 60 %
418 22-04-2020 21:32:17 13.9 C 60 %
419 22-04-2020 21:42:17 13.8 C 60 %
420 22-04-2020 21:52:17 13.8 C 60 %
421 22-04-2020 22:02:17 13.8 C 60 %
422 22-04-2020 22:12:17 13.8 C 60 %
423 22-04-2020 22:22:17 13.8 C 60 %
424 22-04-2020 22:32:17 13.8 C 60 %
425 22-04-2020 22:42:17 13.9 C 60 %
Sensor: Nr:Datum:Temp:Feuchte:
G-T/H 426 22-04-2020 22:52:18 13.9 C 60 %
427 22-04-2020 23:02:17 13.8 C 60 %
428 22-04-2020 23:12:17 13.8 C 60 %
429 22-04-2020 23:22:17 13.8 C 60 %
430 22-04-2020 23:32:17 13.8 C 60 %
431 22-04-2020 23:42:17 13.8 C 60 %
432 22-04-2020 23:52:18 13.9 C 60 %
433 23-04-2020 00:02:17 13.8 C 60 %
434 23-04-2020 00:12:17 13.9 C 60 %
435 23-04-2020 00:22:17 13.8 C 60 %
436 23-04-2020 00:32:17 13.9 C 60 %
437 23-04-2020 00:42:17 13.9 C 60 %
438 23-04-2020 00:52:17 13.8 C 60 %
439 23-04-2020 01:02:17 13.9 C 60 %
440 23-04-2020 01:12:17 13.8 C 60 %
441 23-04-2020 01:22:18 13.8 C 60 %
442 23-04-2020 01:32:17 13.8 C 60 %
443 23-04-2020 01:42:17 13.8 C 60 %
444 23-04-2020 01:52:17 13.8 C 60 %
445 23-04-2020 02:02:17 13.8 C 60 %
446 23-04-2020 02:12:17 13.8 C 60 %
447 23-04-2020 02:22:18 13.8 C 60 %
448 23-04-2020 02:32:17 13.8 C 60 %
449 23-04-2020 02:42:17 13.8 C 60 %
450 23-04-2020 02:52:17 13.8 C 60 %
Sensor: Nr:Datum:Temp:Feuchte:
G-T/H 451 23-04-2020 03:02:18 13.8 C 60 %
452 23-04-2020 03:12:18 13.8 C 59 %
453 23-04-2020 03:22:17 13.8 C 59 %
454 23-04-2020 03:32:17 13.8 C 59 %
455 23-04-2020 03:42:17 13.8 C 59 %
456 23-04-2020 03:52:17 13.8 C 59 %
457 23-04-2020 04:02:17 13.8 C 59 %
458 23-04-2020 04:12:17 13.7 C 59 %
459 23-04-2020 04:22:17 13.7 C 59 %
460 23-04-2020 04:32:17 13.7 C 59 %
461 23-04-2020 04:42:17 13.7 C 58 %
462 23-04-2020 04:52:17 13.7 C 58 %
463 23-04-2020 05:02:17 13.7 C 58 %
464 23-04-2020 05:12:17 13.7 C 58 %
465 23-04-2020 05:22:17 13.7 C 58 %
466 23-04-2020 05:32:17 13.7 C 58 %
467 23-04-2020 05:42:17 13.6 C 58 %
468 23-04-2020 05:52:17 13.6 C 58 %
469 23-04-2020 06:02:17 13.6 C 58 %
470 23-04-2020 06:12:18 13.6 C 58 %
471 23-04-2020 06:22:17 13.6 C 58 %
472 23-04-2020 06:32:18 13.6 C 58 %
473 23-04-2020 06:42:18 13.5 C 58 %
474 23-04-2020 06:52:17 13.5 C 58 %
475 23-04-2020 07:02:17 13.5 C 58 %
Sensor: Nr:Datum:Temp:Feuchte:
G-T/H 476 23-04-2020 07:12:17 13.5 C 58 %
477 23-04-2020 07:22:17 13.5 C 58 %
478 23-04-2020 07:32:17 13.5 C 58 %
479 23-04-2020 07:42:17 13.5 C 58 %
480 23-04-2020 07:52:17 13.5 C 58 %
481 23-04-2020 08:02:17 13.4 C 58 %
482 23-04-2020 08:12:18 13.4 C 58 %
483 23-04-2020 08:22:18 13.4 C 58 %
484 23-04-2020 08:32:18 13.4 C 58 %
485 23-04-2020 08:42:18 13.4 C 58 %
486 23-04-2020 08:52:17 13.3 C 58 %
487 23-04-2020 09:02:17 13.3 C 58 %
488 23-04-2020 09:12:17 13.4 C 58 %
489 23-04-2020 09:22:17 13.3 C 58 %
490 23-04-2020 09:32:17 13.3 C 58 %
491 23-04-2020 09:42:17 13.3 C 58 %
492 23-04-2020 09:52:17 13.3 C 59 %
493 23-04-2020 10:02:18 13.3 C 59 %
494 23-04-2020 10:12:18 13.3 C 59 %
495 23-04-2020 10:22:17 13.3 C 59 %
496 23-04-2020 10:32:17 13.3 C 59 %
497 23-04-2020 10:42:17 13.2 C 59 %
498 23-04-2020 10:52:17 13.2 C 59 %
499 23-04-2020 11:02:18 13.2 C 59 %
500 23-04-2020 11:12:18 13.2 C 59 %
Sensor: Nr:Datum:Temp:Feuchte:
G-T/H 501 23-04-2020 11:22:17 13.2 C 60 %
502 23-04-2020 11:32:17 13.2 C 60 %
503 23-04-2020 11:42:17 13.2 C 60 %
504 23-04-2020 11:52:18 13.3 C 60 %
505 23-04-2020 12:02:17 13.3 C 61 %
506 23-04-2020 12:12:17 13.3 C 61 %
507 23-04-2020 12:22:17 13.3 C 61 %
508 23-04-2020 12:32:18 13.3 C 61 %
509 23-04-2020 12:42:18 13.3 C 61 %
510 23-04-2020 12:52:17 13.3 C 61 %
511 23-04-2020 13:02:17 13.3 C 61 %
512 23-04-2020 13:12:17 13.4 C 61 %
513 23-04-2020 13:22:17 13.3 C 61 %
514 23-04-2020 13:32:17 13.4 C 61 %
515 23-04-2020 13:42:17 13.4 C 61 %
516 23-04-2020 13:52:17 13.4 C 61 %
517 23-04-2020 14:02:17 13.4 C 61 %
518 23-04-2020 14:12:17 13.5 C 61 %
519 23-04-2020 14:22:17 13.4 C 61 %
520 23-04-2020 14:32:17 13.4 C 61 %
521 23-04-2020 14:42:17 13.5 C 61 %
522 23-04-2020 14:52:17 13.5 C 60 %
523 23-04-2020 15:02:17 13.5 C 60 %
524 23-04-2020 15:12:17 13.5 C 60 %
525 23-04-2020 15:22:18 13.5 C 60 %
Sensor: Nr:Datum:Temp:Feuchte:
G-T/H 526 23-04-2020 15:32:17 13.5 C 60 %
527 23-04-2020 15:42:17 13.6 C 61 %
528 23-04-2020 15:52:17 13.6 C 61 %
529 23-04-2020 16:02:18 13.6 C 61 %
530 23-04-2020 16:12:18 13.7 C 61 %
531 23-04-2020 16:22:17 13.7 C 61 %
532 23-04-2020 16:32:18 13.7 C 61 %
533 23-04-2020 16:42:18 13.7 C 61 %
534 23-04-2020 16:52:17 13.7 C 61 %
535 23-04-2020 17:02:17 13.8 C 61 %
536 23-04-2020 17:12:18 13.7 C 61 %
537 23-04-2020 17:22:17 13.8 C 61 %
538 23-04-2020 17:32:18 13.8 C 61 %
539 23-04-2020 17:42:18 13.8 C 61 %
540 23-04-2020 17:52:18 13.9 C 61 %
541 23-04-2020 18:02:17 13.9 C 61 %
542 23-04-2020 18:12:17 13.9 C 61 %
543 23-04-2020 18:22:17 14 C 60 %
544 23-04-2020 18:32:17 14 C 60 %
545 23-04-2020 18:42:17 14 C 60 %
546 23-04-2020 18:52:17 14 C 60 %
547 23-04-2020 19:02:17 14 C 60 %
548 23-04-2020 19:12:17 14.1 C 60 %
549 23-04-2020 19:22:17 14.1 C 60 %
550 23-04-2020 19:32:18 14 C 60 %
Sensor: Nr:Datum:Temp:Feuchte:
G-T/H 551 23-04-2020 19:42:18 14.1 C 60 %
552 23-04-2020 19:52:17 14.1 C 60 %
553 23-04-2020 20:02:18 14.1 C 60 %
554 23-04-2020 20:12:18 14.1 C 60 %
555 23-04-2020 20:22:17 14.1 C 60 %
556 23-04-2020 20:32:18 14.1 C 60 %
557 23-04-2020 20:42:18 14 C 60 %
558 23-04-2020 20:52:18 14.1 C 60 %
559 23-04-2020 21:02:18 14.1 C 60 %
560 23-04-2020 21:12:18 14.1 C 60 %
561 23-04-2020 21:22:17 14.1 C 60 %
562 23-04-2020 21:32:17 14.1 C 60 %
563 23-04-2020 21:42:17 14.1 C 60 %
564 23-04-2020 21:52:17 14.1 C 61 %
565 23-04-2020 22:02:17 14 C 61 %
566 23-04-2020 22:12:17 14.1 C 60 %
567 23-04-2020 22:22:17 14 C 59 %
568 23-04-2020 22:32:18 14 C 59 %
569 23-04-2020 22:42:18 14 C 59 %
570 23-04-2020 22:52:18 14.1 C 59 %
571 23-04-2020 23:02:18 14.1 C 59 %
572 23-04-2020 23:12:18 14.1 C 59 %
573 23-04-2020 23:22:18 14 C 59 %
574 23-04-2020 23:32:17 14.1 C 59 %
575 23-04-2020 23:42:17 14.1 C 59 %
Sensor: Nr:Datum:Temp:Feuchte:
G-T/H 576 23-04-2020 23:52:17 14 C 59 %
577 24-04-2020 00:02:18 14.1 C 59 %
578 24-04-2020 00:12:18 14 C 59 %
579 24-04-2020 00:22:17 14 C 59 %
580 24-04-2020 00:32:18 14 C 59 %
581 24-04-2020 00:42:18 14 C 59 %
582 24-04-2020 00:52:17 14 C 59 %
583 24-04-2020 01:02:18 14 C 59 %
584 24-04-2020 01:12:18 14 C 59 %
585 24-04-2020 01:22:17 14 C 59 %
586 24-04-2020 01:32:18 14 C 59 %
587 24-04-2020 01:42:18 14 C 59 %
588 24-04-2020 01:52:17 14 C 58 %
589 24-04-2020 02:02:17 14 C 58 %
590 24-04-2020 02:12:17 14 C 58 %
591 24-04-2020 02:22:17 13.9 C 59 %
592 24-04-2020 02:32:18 13.9 C 59 %
593 24-04-2020 02:42:18 13.9 C 59 %
594 24-04-2020 02:52:18 13.9 C 59 %
595 24-04-2020 03:02:17 13.9 C 59 %
596 24-04-2020 03:12:18 13.9 C 59 %
597 24-04-2020 03:22:17 13.9 C 59 %
598 24-04-2020 03:32:17 13.9 C 59 %
599 24-04-2020 03:42:17 13.9 C 59 %
600 24-04-2020 03:52:17 13.8 C 59 %
Sensor: Nr:Datum:Temp:Feuchte:
G-T/H 601 24-04-2020 04:02:17 13.8 C 59 %
602 24-04-2020 04:12:17 13.8 C 59 %
603 24-04-2020 04:22:17 13.8 C 59 %
604 24-04-2020 04:32:17 13.8 C 59 %
605 24-04-2020 04:42:17 13.8 C 59 %
606 24-04-2020 04:52:17 13.8 C 58 %
607 24-04-2020 05:02:17 13.8 C 58 %
608 24-04-2020 05:12:17 13.8 C 58 %
609 24-04-2020 05:22:17 13.7 C 58 %
610 24-04-2020 05:32:18 13.7 C 58 %
611 24-04-2020 05:42:18 13.7 C 58 %
612 24-04-2020 05:52:17 13.7 C 58 %
613 24-04-2020 06:02:17 13.7 C 58 %
614 24-04-2020 06:12:17 13.7 C 58 %
615 24-04-2020 06:22:18 13.7 C 58 %
616 24-04-2020 06:32:17 13.6 C 58 %
617 24-04-2020 06:42:17 13.6 C 58 %
618 24-04-2020 06:52:17 13.6 C 58 %
619 24-04-2020 07:02:17 13.6 C 58 %
620 24-04-2020 07:12:17 13.5 C 59 %
621 24-04-2020 07:22:17 13.6 C 59 %
622 24-04-2020 07:32:18 13.6 C 59 %
623 24-04-2020 07:42:18 13.5 C 59 %
624 24-04-2020 07:52:17 13.5 C 59 %
625 24-04-2020 08:02:18 13.5 C 59 %
Sensor: Nr:Datum:Temp:Feuchte:
G-T/H 626 24-04-2020 08:12:18 13.5 C 59 %
627 24-04-2020 08:22:17 13.5 C 59 %
628 24-04-2020 08:32:17 13.5 C 59 %
629 24-04-2020 08:42:17 13.5 C 59 %
630 24-04-2020 08:52:17 13.5 C 59 %
631 24-04-2020 09:02:17 13.5 C 59 %
632 24-04-2020 09:12:18 13.4 C 59 %
633 24-04-2020 09:22:17 13.4 C 59 %
634 24-04-2020 09:32:18 13.4 C 59 %
635 24-04-2020 09:42:18 13.4 C 59 %
636 24-04-2020 09:52:17 13.4 C 59 %
637 24-04-2020 10:02:17 13.4 C 60 %
638 24-04-2020 10:12:17 13.4 C 60 %
639 24-04-2020 10:22:17 13.4 C 60 %
640 24-04-2020 10:32:17 13.4 C 60 %
641 24-04-2020 10:42:17 13.4 C 61 %
642 24-04-2020 10:52:17 13.4 C 61 %
643 24-04-2020 11:02:17 13.4 C 61 %
644 24-04-2020 11:12:18 13.4 C 61 %
645 24-04-2020 11:22:17 13.4 C 62 %
646 24-04-2020 11:32:18 13.4 C 62 %
647 24-04-2020 11:42:18 13.5 C 62 %
648 24-04-2020 11:52:17 13.7 C 60 %
649 24-04-2020 12:02:17 14 C 59 %
650 24-04-2020 12:12:17 14.1 C 58 %
Sensor: Nr:Datum:Temp:Feuchte:
G-T/H 651 24-04-2020 12:22:17 14.4 C 57 %
652 24-04-2020 12:32:18 14.5 C 57 %
653 24-04-2020 12:42:18 14.6 C 56 %
654 24-04-2020 12:52:18 14.8 C 55 %
655 24-04-2020 13:02:17 14.9 C 53 %
656 24-04-2020 13:12:17 15.1 C 51 %
657 24-04-2020 13:22:17 15.2 C 50 %
658 24-04-2020 13:32:18 15.4 C 48 %
659 24-04-2020 13:42:18 15.5 C 46 %
660 24-04-2020 13:52:17 15.5 C 46 %
661 24-04-2020 14:02:17 15.6 C 46 %
662 24-04-2020 14:12:17 15.9 C 45 %
663 24-04-2020 14:22:17 16 C 45 %
664 24-04-2020 14:32:17 16.1 C 45 %
665 24-04-2020 14:42:17 16.2 C 46 %
666 24-04-2020 14:52:17 16.2 C 46 %
667 24-04-2020 15:02:18 16.3 C 46 %
668 24-04-2020 15:12:18 16.4 C 46 %
669 24-04-2020 15:22:17 16.6 C 45 %
670 24-04-2020 15:32:17 16.6 C 44 %
671 24-04-2020 15:42:18 16.6 C 43 %
672 24-04-2020 15:52:17 16.6 C 43 %
673 24-04-2020 16:02:18 16.7 C 42 %
674 24-04-2020 16:12:18 16.8 C 41 %
675 24-04-2020 16:22:18 16.8 C 40 %
Sensor: Nr:Datum:Temp:Feuchte:
G-T/H 676 24-04-2020 16:32:18 16.9 C 40 %
677 24-04-2020 16:42:18 16.9 C 39 %
678 24-04-2020 16:52:17 16.9 C 38 %
679 24-04-2020 17:02:17 17 C 37 %
680 24-04-2020 17:12:17 17.1 C 37 %
681 24-04-2020 17:22:18 17.1 C 36 %
682 24-04-2020 17:32:18 17.2 C 36 %
683 24-04-2020 17:42:18 17.1 C 35 %
684 24-04-2020 17:52:17 17.2 C 35 %
685 24-04-2020 18:02:18 17.2 C 35 %
686 24-04-2020 18:12:18 17.2 C 36 %
687 24-04-2020 18:22:17 17.2 C 36 %
688 24-04-2020 18:32:17 17.2 C 37 %
689 24-04-2020 18:42:17 17.2 C 38 %
690 24-04-2020 18:52:18 17.2 C 39 %
691 24-04-2020 19:02:17 17.2 C 39 %
692 24-04-2020 19:12:17 17.2 C 40 %
693 24-04-2020 19:23:17 17 C 40 %
694 24-04-2020 19:32:17 16.8 C 41 %
695 24-04-2020 19:42:18 16.7 C 42 %
696 24-04-2020 19:53:17 16.6 C 42 %
697 24-04-2020 20:02:18 16.6 C 43 %
698 24-04-2020 20:12:18 16.4 C 44 %
699 24-04-2020 20:22:17 16.5 C 44 %
700 24-04-2020 20:32:18 16.4 C 45 %
Sensor: Nr:Datum:Temp:Feuchte:
G-T/H 701 24-04-2020 20:42:18 16.3 C 45 %
702 24-04-2020 20:52:18 16.3 C 46 %
703 24-04-2020 21:02:18 16.3 C 46 %
704 24-04-2020 21:12:18 16.2 C 47 %
705 24-04-2020 21:23:17 16.2 C 47 %
706 24-04-2020 21:33:17 16.1 C 47 %
707 24-04-2020 21:42:17 16.1 C 48 %
708 24-04-2020 21:52:17 16 C 48 %
709 24-04-2020 22:03:17 16 C 49 %
710 24-04-2020 22:13:17 16 C 49 %
711 24-04-2020 22:22:18 15.9 C 50 %
712 24-04-2020 22:32:18 15.9 C 51 %
713 24-04-2020 22:42:18 15.9 C 51 %
714 24-04-2020 22:52:18 15.8 C 51 %
715 24-04-2020 23:02:18 15.8 C 52 %
716 24-04-2020 23:12:18 15.8 C 52 %
717 24-04-2020 23:22:17 15.8 C 52 %
718 24-04-2020 23:33:17 15.7 C 52 %
719 24-04-2020 23:43:17 15.7 C 53 %
720 24-04-2020 23:53:17 15.7 C 53 %

Legende:
   Min
   Max


Maximal/Minimal-Werte vom 20.04.2020 - 24.04.2020

Sensor Min Max Avg
Temp
(Aussen-T/F)
5.2 °C
23-04-2020  07:22:17
31.6 °C
23-04-2020  17:02:17
14.16 °C
Feuchte
(Aussen-T/F)
20 %
20-04-2020  10:22:17
39 %
23-04-2020  07:32:17
23.98 %
Temp
(G-T/H)
12.8 °C
21-04-2020  10:42:17
17.2 °C
24-04-2020  17:32:18
13.78 °C
Feuchte
(G-T/H)
35 %
24-04-2020  17:42:18
62 %
20-04-2020  13:12:17
57.93 %

Die Daten stammen von einer Davis Vantage Pro 2 Wetter-Station und werden unter Linux mit der Software wview2wettercgi und aufbereitet. Alle Angaben erfolgen ohne Gewähr für ihre Vollständigkeit oder Richtigkeit.
Kontakt: Rainer Krienke krienke@uni-koblenz.de . Meine Webseiten an der Uni Koblenz oder privat.
Version: $Revision: 0.78 $